sensor_id;sensor_type;location;lat;lon;timestamp;P1;durP1;ratioP1;P2;durP2;ratioP2
20986;SDS011;10652;50.306;8.570;2023-05-16T00:03:36;34.22;;;23.67;;
20986;SDS011;10652;50.306;8.570;2023-05-16T00:07:41;35.47;;;24.17;;
20986;SDS011;10652;50.306;8.570;2023-05-16T00:11:44;33.75;;;23.50;;
20986;SDS011;10652;50.306;8.570;2023-05-16T00:15:47;33.25;;;23.77;;
20986;SDS011;10652;50.306;8.570;2023-05-16T00:19:50;32.63;;;22.67;;
20986;SDS011;10652;50.306;8.570;2023-05-16T00:23:58;34.83;;;23.70;;
20986;SDS011;10652;50.306;8.570;2023-05-16T00:28:01;35.10;;;24.02;;
20986;SDS011;10652;50.306;8.570;2023-05-16T00:32:05;34.63;;;24.02;;
20986;SDS011;10652;50.306;8.570;2023-05-16T00:36:09;35.63;;;24.42;;
20986;SDS011;10652;50.306;8.570;2023-05-16T00:40:12;32.05;;;22.90;;
20986;SDS011;10652;50.306;8.570;2023-05-16T00:44:16;30.63;;;22.30;;
20986;SDS011;10652;50.306;8.570;2023-05-16T00:48:18;32.03;;;23.08;;
20986;SDS011;10652;50.306;8.570;2023-05-16T00:52:20;31.67;;;22.17;;
20986;SDS011;10652;50.306;8.570;2023-05-16T00:56:23;32.92;;;21.70;;
20986;SDS011;10652;50.306;8.570;2023-05-16T01:00:25;29.92;;;21.70;;
20986;SDS011;10652;50.306;8.570;2023-05-16T01:04:28;30.38;;;21.83;;
20986;SDS011;10652;50.306;8.570;2023-05-16T01:08:30;32.58;;;22.85;;
20986;SDS011;10652;50.306;8.570;2023-05-16T01:12:36;35.10;;;24.05;;
20986;SDS011;10652;50.306;8.570;2023-05-16T01:21:07;37.17;;;25.50;;
20986;SDS011;10652;50.306;8.570;2023-05-16T01:29:37;36.85;;;25.70;;
20986;SDS011;10652;50.306;8.570;2023-05-16T01:33:39;41.67;;;26.67;;
20986;SDS011;10652;50.306;8.570;2023-05-16T01:42:13;39.72;;;25.80;;
20986;SDS011;10652;50.306;8.570;2023-05-16T01:46:21;36.78;;;25.25;;
20986;SDS011;10652;50.306;8.570;2023-05-16T01:50:27;35.50;;;25.00;;
20986;SDS011;10652;50.306;8.570;2023-05-16T01:54:36;42.13;;;26.55;;
20986;SDS011;10652;50.306;8.570;2023-05-16T01:58:40;38.65;;;25.02;;
20986;SDS011;10652;50.306;8.570;2023-05-16T02:02:42;32.53;;;23.55;;
20986;SDS011;10652;50.306;8.570;2023-05-16T02:06:44;34.13;;;23.02;;
20986;SDS011;10652;50.306;8.570;2023-05-16T02:10:46;33.22;;;23.55;;
20986;SDS011;10652;50.306;8.570;2023-05-16T02:14:48;29.20;;;22.90;;
20986;SDS011;10652;50.306;8.570;2023-05-16T02:18:51;33.75;;;22.88;;
20986;SDS011;10652;50.306;8.570;2023-05-16T02:22:53;29.75;;;22.27;;
20986;SDS011;10652;50.306;8.570;2023-05-16T02:26:55;31.95;;;22.40;;
20986;SDS011;10652;50.306;8.570;2023-05-16T02:31:00;30.60;;;21.90;;
20986;SDS011;10652;50.306;8.570;2023-05-16T02:35:02;30.58;;;22.38;;
20986;SDS011;10652;50.306;8.570;2023-05-16T02:39:05;31.67;;;22.20;;
20986;SDS011;10652;50.306;8.570;2023-05-16T02:43:08;29.85;;;22.33;;
20986;SDS011;10652;50.306;8.570;2023-05-16T02:47:10;31.98;;;21.88;;
20986;SDS011;10652;50.306;8.570;2023-05-16T02:51:12;33.53;;;22.02;;
20986;SDS011;10652;50.306;8.570;2023-05-16T02:55:15;32.88;;;22.60;;
20986;SDS011;10652;50.306;8.570;2023-05-16T02:59:23;31.13;;;21.77;;
20986;SDS011;10652;50.306;8.570;2023-05-16T03:03:25;28.92;;;21.73;;
20986;SDS011;10652;50.306;8.570;2023-05-16T03:07:28;29.15;;;21.33;;
20986;SDS011;10652;50.306;8.570;2023-05-16T03:11:31;34.10;;;22.05;;
20986;SDS011;10652;50.306;8.570;2023-05-16T03:15:37;33.10;;;21.65;;
20986;SDS011;10652;50.306;8.570;2023-05-16T03:19:39;31.40;;;21.40;;
20986;SDS011;10652;50.306;8.570;2023-05-16T03:23:42;32.17;;;22.02;;
20986;SDS011;10652;50.306;8.570;2023-05-16T03:27:44;29.42;;;20.33;;
20986;SDS011;10652;50.306;8.570;2023-05-16T03:31:46;30.42;;;20.27;;
20986;SDS011;10652;50.306;8.570;2023-05-16T03:35:48;27.73;;;20.23;;
20986;SDS011;10652;50.306;8.570;2023-05-16T03:39:51;29.52;;;18.92;;
20986;SDS011;10652;50.306;8.570;2023-05-16T03:43:53;28.00;;;18.27;;
20986;SDS011;10652;50.306;8.570;2023-05-16T03:47:55;28.90;;;17.33;;
20986;SDS011;10652;50.306;8.570;2023-05-16T03:51:58;27.42;;;16.75;;
20986;SDS011;10652;50.306;8.570;2023-05-16T03:56:00;24.05;;;15.52;;
20986;SDS011;10652;50.306;8.570;2023-05-16T04:00:02;22.48;;;15.00;;
20986;SDS011;10652;50.306;8.570;2023-05-16T04:04:12;19.65;;;14.23;;
20986;SDS011;10652;50.306;8.570;2023-05-16T04:08:14;19.13;;;13.70;;
20986;SDS011;10652;50.306;8.570;2023-05-16T04:12:16;20.92;;;13.63;;
20986;SDS011;10652;50.306;8.570;2023-05-16T04:16:18;20.60;;;14.15;;
20986;SDS011;10652;50.306;8.570;2023-05-16T04:20:21;20.23;;;14.38;;
20986;SDS011;10652;50.306;8.570;2023-05-16T04:24:23;20.95;;;13.88;;
20986;SDS011;10652;50.306;8.570;2023-05-16T04:28:27;20.52;;;13.45;;
20986;SDS011;10652;50.306;8.570;2023-05-16T04:32:29;16.48;;;12.07;;
20986;SDS011;10652;50.306;8.570;2023-05-16T04:36:31;19.10;;;11.77;;
20986;SDS011;10652;50.306;8.570;2023-05-16T04:40:33;16.70;;;11.13;;
20986;SDS011;10652;50.306;8.570;2023-05-16T04:44:36;15.38;;;9.98;;
20986;SDS011;10652;50.306;8.570;2023-05-16T04:48:38;17.02;;;10.63;;
20986;SDS011;10652;50.306;8.570;2023-05-16T04:52:40;13.05;;;9.35;;
20986;SDS011;10652;50.306;8.570;2023-05-16T04:56:42;9.82;;;7.45;;
20986;SDS011;10652;50.306;8.570;2023-05-16T05:00:44;9.95;;;6.60;;
20986;SDS011;10652;50.306;8.570;2023-05-16T05:04:46;8.82;;;6.88;;
20986;SDS011;10652;50.306;8.570;2023-05-16T05:08:48;8.25;;;6.15;;
20986;SDS011;10652;50.306;8.570;2023-05-16T05:12:51;9.88;;;6.70;;
20986;SDS011;10652;50.306;8.570;2023-05-16T05:16:53;6.40;;;5.45;;
20986;SDS011;10652;50.306;8.570;2023-05-16T05:20:55;6.43;;;4.85;;
20986;SDS011;10652;50.306;8.570;2023-05-16T05:24:57;5.28;;;4.38;;
20986;SDS011;10652;50.306;8.570;2023-05-16T05:28:59;4.45;;;3.70;;
20986;SDS011;10652;50.306;8.570;2023-05-16T05:33:06;4.03;;;3.33;;
20986;SDS011;10652;50.306;8.570;2023-05-16T05:37:09;4.47;;;3.10;;
20986;SDS011;10652;50.306;8.570;2023-05-16T05:41:11;3.97;;;1.95;;
20986;SDS011;10652;50.306;8.570;2023-05-16T05:45:13;3.08;;;2.00;;
20986;SDS011;10652;50.306;8.570;2023-05-16T05:49:16;2.83;;;1.33;;
20986;SDS011;10652;50.306;8.570;2023-05-16T05:53:18;1.40;;;1.10;;
20986;SDS011;10652;50.306;8.570;2023-05-16T05:57:20;1.95;;;0.88;;
20986;SDS011;10652;50.306;8.570;2023-05-16T06:01:22;1.20;;;0.80;;
20986;SDS011;10652;50.306;8.570;2023-05-16T06:05:25;1.27;;;0.70;;
20986;SDS011;10652;50.306;8.570;2023-05-16T06:09:27;4.10;;;1.80;;
20986;SDS011;10652;50.306;8.570;2023-05-16T06:13:29;3.17;;;1.50;;
20986;SDS011;10652;50.306;8.570;2023-05-16T06:17:31;1.40;;;0.70;;
20986;SDS011;10652;50.306;8.570;2023-05-16T06:21:34;0.77;;;0.55;;
20986;SDS011;10652;50.306;8.570;2023-05-16T06:25:36;0.50;;;0.50;;
20986;SDS011;10652;50.306;8.570;2023-05-16T06:29:38;0.60;;;0.60;;
20986;SDS011;10652;50.306;8.570;2023-05-16T06:33:40;0.75;;;0.68;;
20986;SDS011;10652;50.306;8.570;2023-05-16T06:37:42;0.80;;;0.70;;
20986;SDS011;10652;50.306;8.570;2023-05-16T06:41:44;2.10;;;0.77;;
20986;SDS011;10652;50.306;8.570;2023-05-16T06:45:50;1.50;;;0.47;;
20986;SDS011;10652;50.306;8.570;2023-05-16T06:49:52;1.00;;;0.60;;
20986;SDS011;10652;50.306;8.570;2023-05-16T06:53:54;1.27;;;0.50;;
20986;SDS011;10652;50.306;8.570;2023-05-16T06:57:56;0.50;;;0.30;;
20986;SDS011;10652;50.306;8.570;2023-05-16T07:01:58;1.08;;;0.20;;
20986;SDS011;10652;50.306;8.570;2023-05-16T07:06:00;1.88;;;0.20;;
20986;SDS011;10652;50.306;8.570;2023-05-16T07:10:03;0.52;;;0.22;;
20986;SDS011;10652;50.306;8.570;2023-05-16T07:14:05;0.90;;;0.20;;
20986;SDS011;10652;50.306;8.570;2023-05-16T07:18:07;1.35;;;0.30;;
20986;SDS011;10652;50.306;8.570;2023-05-16T07:22:09;2.75;;;0.32;;
20986;SDS011;10652;50.306;8.570;2023-05-16T07:26:12;0.30;;;0.30;;
20986;SDS011;10652;50.306;8.570;2023-05-16T07:30:15;0.22;;;0.20;;
20986;SDS011;10652;50.306;8.570;2023-05-16T07:34:17;0.65;;;0.20;;
20986;SDS011;10652;50.306;8.570;2023-05-16T07:38:20;0.60;;;0.30;;
20986;SDS011;10652;50.306;8.570;2023-05-16T07:42:22;1.35;;;0.32;;
20986;SDS011;10652;50.306;8.570;2023-05-16T07:46:25;0.82;;;0.30;;
20986;SDS011;10652;50.306;8.570;2023-05-16T07:50:28;0.30;;;0.30;;
20986;SDS011;10652;50.306;8.570;2023-05-16T07:54:31;1.45;;;0.70;;
20986;SDS011;10652;50.306;8.570;2023-05-16T07:58:34;0.85;;;0.45;;
20986;SDS011;10652;50.306;8.570;2023-05-16T08:02:36;2.35;;;0.60;;
20986;SDS011;10652;50.306;8.570;2023-05-16T08:06:38;0.57;;;0.38;;
20986;SDS011;10652;50.306;8.570;2023-05-16T08:10:41;2.53;;;0.93;;
20986;SDS011;10652;50.306;8.570;2023-05-16T08:14:43;3.72;;;2.33;;
20986;SDS011;10652;50.306;8.570;2023-05-16T08:18:45;2.67;;;2.00;;
20986;SDS011;10652;50.306;8.570;2023-05-16T08:22:48;1.58;;;0.60;;
20986;SDS011;10652;50.306;8.570;2023-05-16T08:26:50;1.05;;;0.82;;
20986;SDS011;10652;50.306;8.570;2023-05-16T08:30:52;1.42;;;0.40;;
20986;SDS011;10652;50.306;8.570;2023-05-16T08:34:55;1.27;;;0.98;;
20986;SDS011;10652;50.306;8.570;2023-05-16T08:38:57;2.60;;;0.50;;
20986;SDS011;10652;50.306;8.570;2023-05-16T08:42:59;1.75;;;0.65;;
20986;SDS011;10652;50.306;8.570;2023-05-16T08:47:06;1.38;;;0.60;;
20986;SDS011;10652;50.306;8.570;2023-05-16T08:55:22;1.13;;;0.60;;
20986;SDS011;10652;50.306;8.570;2023-05-16T08:59:27;2.92;;;0.80;;
20986;SDS011;10652;50.306;8.570;2023-05-16T09:03:30;1.17;;;0.60;;
20986;SDS011;10652;50.306;8.570;2023-05-16T09:07:32;1.05;;;0.60;;
20986;SDS011;10652;50.306;8.570;2023-05-16T09:11:34;2.47;;;0.88;;
20986;SDS011;10652;50.306;8.570;2023-05-16T09:15:38;2.97;;;1.10;;
20986;SDS011;10652;50.306;8.570;2023-05-16T09:19:41;2.22;;;0.80;;
20986;SDS011;10652;50.306;8.570;2023-05-16T09:23:44;2.38;;;0.93;;
20986;SDS011;10652;50.306;8.570;2023-05-16T09:27:53;2.85;;;0.90;;
20986;SDS011;10652;50.306;8.570;2023-05-16T09:32:00;5.28;;;1.20;;
20986;SDS011;10652;50.306;8.570;2023-05-16T09:36:06;6.07;;;1.20;;
20986;SDS011;10652;50.306;8.570;2023-05-16T09:40:09;4.40;;;1.27;;
20986;SDS011;10652;50.306;8.570;2023-05-16T09:44:11;4.07;;;1.45;;
20986;SDS011;10652;50.306;8.570;2023-05-16T09:48:14;6.88;;;1.40;;
20986;SDS011;10652;50.306;8.570;2023-05-16T09:52:17;6.53;;;1.52;;
20986;SDS011;10652;50.306;8.570;2023-05-16T09:56:19;4.68;;;1.08;;
20986;SDS011;10652;50.306;8.570;2023-05-16T10:00:22;6.68;;;1.40;;
20986;SDS011;10652;50.306;8.570;2023-05-16T10:04:30;3.83;;;1.10;;
20986;SDS011;10652;50.306;8.570;2023-05-16T10:08:33;5.05;;;1.67;;
20986;SDS011;10652;50.306;8.570;2023-05-16T10:12:37;3.10;;;0.90;;
20986;SDS011;10652;50.306;8.570;2023-05-16T10:16:40;5.97;;;1.30;;
20986;SDS011;10652;50.306;8.570;2023-05-16T10:20:45;5.53;;;1.70;;
20986;SDS011;10652;50.306;8.570;2023-05-16T10:24:57;4.97;;;1.08;;
20986;SDS011;10652;50.306;8.570;2023-05-16T10:29:08;3.33;;;0.90;;
20986;SDS011;10652;50.306;8.570;2023-05-16T10:33:11;5.47;;;0.93;;
20986;SDS011;10652;50.306;8.570;2023-05-16T10:37:18;2.88;;;0.70;;
20986;SDS011;10652;50.306;8.570;2023-05-16T10:41:20;4.63;;;0.90;;
20986;SDS011;10652;50.306;8.570;2023-05-16T10:45:22;5.45;;;1.00;;
20986;SDS011;10652;50.306;8.570;2023-05-16T10:49:25;5.35;;;1.40;;
20986;SDS011;10652;50.306;8.570;2023-05-16T10:53:32;6.07;;;1.60;;
20986;SDS011;10652;50.306;8.570;2023-05-16T10:57:35;7.60;;;2.78;;
20986;SDS011;10652;50.306;8.570;2023-05-16T11:01:39;6.15;;;1.42;;
20986;SDS011;10652;50.306;8.570;2023-05-16T11:05:42;5.50;;;0.90;;
20986;SDS011;10652;50.306;8.570;2023-05-16T11:09:44;6.25;;;1.35;;
20986;SDS011;10652;50.306;8.570;2023-05-16T11:13:53;5.75;;;1.30;;
20986;SDS011;10652;50.306;8.570;2023-05-16T11:22:27;3.58;;;0.77;;
20986;SDS011;10652;50.306;8.570;2023-05-16T11:26:30;2.80;;;0.75;;
20986;SDS011;10652;50.306;8.570;2023-05-16T11:30:32;6.07;;;1.02;;
20986;SDS011;10652;50.306;8.570;2023-05-16T11:34:35;3.40;;;0.70;;
20986;SDS011;10652;50.306;8.570;2023-05-16T11:38:38;3.50;;;0.70;;
20986;SDS011;10652;50.306;8.570;2023-05-16T11:42:45;2.35;;;0.90;;
20986;SDS011;10652;50.306;8.570;2023-05-16T11:46:51;3.78;;;1.10;;
20986;SDS011;10652;50.306;8.570;2023-05-16T11:50:53;2.80;;;0.77;;
20986;SDS011;10652;50.306;8.570;2023-05-16T11:54:55;3.22;;;0.68;;
20986;SDS011;10652;50.306;8.570;2023-05-16T11:59:02;6.03;;;1.00;;
20986;SDS011;10652;50.306;8.570;2023-05-16T12:03:04;2.88;;;0.85;;
20986;SDS011;10652;50.306;8.570;2023-05-16T12:07:07;3.58;;;0.60;;
20986;SDS011;10652;50.306;8.570;2023-05-16T12:11:09;2.70;;;0.73;;
20986;SDS011;10652;50.306;8.570;2023-05-16T12:15:11;4.43;;;1.02;;
20986;SDS011;10652;50.306;8.570;2023-05-16T12:19:14;3.53;;;0.57;;
20986;SDS011;10652;50.306;8.570;2023-05-16T12:23:17;2.60;;;0.70;;
20986;SDS011;10652;50.306;8.570;2023-05-16T12:27:25;2.22;;;0.57;;
20986;SDS011;10652;50.306;8.570;2023-05-16T12:31:28;4.35;;;1.00;;
20986;SDS011;10652;50.306;8.570;2023-05-16T12:35:33;4.80;;;0.70;;
20986;SDS011;10652;50.306;8.570;2023-05-16T12:39:38;5.90;;;1.02;;
20986;SDS011;10652;50.306;8.570;2023-05-16T12:43:40;4.70;;;0.65;;
20986;SDS011;10652;50.306;8.570;2023-05-16T12:47:42;4.45;;;0.68;;
20986;SDS011;10652;50.306;8.570;2023-05-16T12:51:48;3.85;;;0.70;;
20986;SDS011;10652;50.306;8.570;2023-05-16T12:55:59;4.40;;;1.25;;
20986;SDS011;10652;50.306;8.570;2023-05-16T13:00:01;4.60;;;0.82;;
20986;SDS011;10652;50.306;8.570;2023-05-16T13:04:03;3.53;;;0.90;;
20986;SDS011;10652;50.306;8.570;2023-05-16T13:08:06;2.40;;;0.55;;
20986;SDS011;10652;50.306;8.570;2023-05-16T13:12:08;3.05;;;0.82;;
20986;SDS011;10652;50.306;8.570;2023-05-16T13:16:10;2.17;;;0.63;;
20986;SDS011;10652;50.306;8.570;2023-05-16T13:20:12;4.38;;;0.65;;
20986;SDS011;10652;50.306;8.570;2023-05-16T13:24:16;3.22;;;0.70;;
20986;SDS011;10652;50.306;8.570;2023-05-16T13:28:18;2.72;;;0.63;;
20986;SDS011;10652;50.306;8.570;2023-05-16T13:32:20;2.53;;;0.70;;
20986;SDS011;10652;50.306;8.570;2023-05-16T13:36:22;3.83;;;0.85;;
20986;SDS011;10652;50.306;8.570;2023-05-16T13:40:24;2.65;;;0.60;;
20986;SDS011;10652;50.306;8.570;2023-05-16T13:44:26;2.60;;;0.60;;
20986;SDS011;10652;50.306;8.570;2023-05-16T13:48:28;3.90;;;0.65;;
20986;SDS011;10652;50.306;8.570;2023-05-16T13:52:30;1.65;;;0.52;;
20986;SDS011;10652;50.306;8.570;2023-05-16T13:56:32;3.28;;;0.80;;
20986;SDS011;10652;50.306;8.570;2023-05-16T14:00:35;4.75;;;0.80;;
20986;SDS011;10652;50.306;8.570;2023-05-16T14:04:46;3.80;;;0.70;;
20986;SDS011;10652;50.306;8.570;2023-05-16T14:08:50;1.73;;;0.50;;
20986;SDS011;10652;50.306;8.570;2023-05-16T14:12:53;2.97;;;0.50;;
20986;SDS011;10652;50.306;8.570;2023-05-16T14:16:55;3.90;;;0.75;;
20986;SDS011;10652;50.306;8.570;2023-05-16T14:20:57;3.25;;;0.70;;
20986;SDS011;10652;50.306;8.570;2023-05-16T14:24:59;3.38;;;0.75;;
20986;SDS011;10652;50.306;8.570;2023-05-16T14:29:01;3.78;;;0.90;;
20986;SDS011;10652;50.306;8.570;2023-05-16T14:33:03;7.78;;;1.02;;
20986;SDS011;10652;50.306;8.570;2023-05-16T14:37:06;3.03;;;0.70;;
20986;SDS011;10652;50.306;8.570;2023-05-16T14:41:10;4.43;;;0.85;;
20986;SDS011;10652;50.306;8.570;2023-05-16T14:45:13;3.28;;;0.65;;
20986;SDS011;10652;50.306;8.570;2023-05-16T14:49:15;1.85;;;0.55;;
20986;SDS011;10652;50.306;8.570;2023-05-16T14:53:18;2.03;;;0.43;;
20986;SDS011;10652;50.306;8.570;2023-05-16T14:57:22;2.03;;;0.55;;
20986;SDS011;10652;50.306;8.570;2023-05-16T15:01:24;4.25;;;0.68;;
20986;SDS011;10652;50.306;8.570;2023-05-16T15:05:26;3.72;;;0.80;;
20986;SDS011;10652;50.306;8.570;2023-05-16T15:09:30;2.78;;;0.60;;
20986;SDS011;10652;50.306;8.570;2023-05-16T15:13:32;2.53;;;0.50;;
20986;SDS011;10652;50.306;8.570;2023-05-16T15:17:34;2.42;;;0.70;;
20986;SDS011;10652;50.306;8.570;2023-05-16T15:21:36;2.90;;;0.63;;
20986;SDS011;10652;50.306;8.570;2023-05-16T15:25:38;4.20;;;0.60;;
20986;SDS011;10652;50.306;8.570;2023-05-16T15:29:40;2.58;;;0.43;;
20986;SDS011;10652;50.306;8.570;2023-05-16T15:33:42;2.17;;;0.60;;
20986;SDS011;10652;50.306;8.570;2023-05-16T15:37:49;2.33;;;0.40;;
20986;SDS011;10652;50.306;8.570;2023-05-16T15:41:53;2.65;;;0.77;;
20986;SDS011;10652;50.306;8.570;2023-05-16T15:45:58;1.92;;;0.50;;
20986;SDS011;10652;50.306;8.570;2023-05-16T15:50:00;1.92;;;0.60;;
20986;SDS011;10652;50.306;8.570;2023-05-16T15:54:03;4.50;;;0.80;;
20986;SDS011;10652;50.306;8.570;2023-05-16T15:58:05;2.05;;;0.50;;
20986;SDS011;10652;50.306;8.570;2023-05-16T16:02:07;3.03;;;0.60;;
20986;SDS011;10652;50.306;8.570;2023-05-16T16:06:09;1.70;;;0.50;;
20986;SDS011;10652;50.306;8.570;2023-05-16T16:10:12;1.58;;;0.60;;
20986;SDS011;10652;50.306;8.570;2023-05-16T16:14:14;4.15;;;1.75;;
20986;SDS011;10652;50.306;8.570;2023-05-16T16:18:16;1.95;;;0.70;;
20986;SDS011;10652;50.306;8.570;2023-05-16T16:22:18;4.88;;;1.02;;
20986;SDS011;10652;50.306;8.570;2023-05-16T16:26:23;2.65;;;0.63;;
20986;SDS011;10652;50.306;8.570;2023-05-16T16:30:25;4.15;;;1.02;;
20986;SDS011;10652;50.306;8.570;2023-05-16T16:34:28;2.05;;;0.55;;
20986;SDS011;10652;50.306;8.570;2023-05-16T16:38:30;3.40;;;0.50;;
20986;SDS011;10652;50.306;8.570;2023-05-16T16:42:32;2.72;;;0.57;;
20986;SDS011;10652;50.306;8.570;2023-05-16T16:46:34;1.95;;;0.50;;
20986;SDS011;10652;50.306;8.570;2023-05-16T16:50:37;1.90;;;0.63;;
20986;SDS011;10652;50.306;8.570;2023-05-16T16:54:39;3.28;;;0.80;;
20986;SDS011;10652;50.306;8.570;2023-05-16T16:58:41;2.15;;;0.30;;
20986;SDS011;10652;50.306;8.570;2023-05-16T17:02:43;3.20;;;0.70;;
20986;SDS011;10652;50.306;8.570;2023-05-16T17:06:45;1.90;;;0.50;;
20986;SDS011;10652;50.306;8.570;2023-05-16T17:10:49;1.20;;;0.50;;
20986;SDS011;10652;50.306;8.570;2023-05-16T17:14:51;2.95;;;0.70;;
20986;SDS011;10652;50.306;8.570;2023-05-16T17:18:54;3.38;;;0.60;;
20986;SDS011;10652;50.306;8.570;2023-05-16T17:22:57;1.85;;;0.50;;
20986;SDS011;10652;50.306;8.570;2023-05-16T17:26:59;1.95;;;0.73;;
20986;SDS011;10652;50.306;8.570;2023-05-16T17:31:02;3.50;;;0.60;;
20986;SDS011;10652;50.306;8.570;2023-05-16T17:35:04;2.83;;;0.52;;
20986;SDS011;10652;50.306;8.570;2023-05-16T17:39:07;3.15;;;0.70;;
20986;SDS011;10652;50.306;8.570;2023-05-16T17:43:11;2.30;;;0.40;;
20986;SDS011;10652;50.306;8.570;2023-05-16T17:47:13;2.28;;;0.55;;
20986;SDS011;10652;50.306;8.570;2023-05-16T17:51:15;3.05;;;0.50;;
20986;SDS011;10652;50.306;8.570;2023-05-16T17:55:17;1.80;;;0.60;;
20986;SDS011;10652;50.306;8.570;2023-05-16T17:59:19;2.88;;;0.52;;
20986;SDS011;10652;50.306;8.570;2023-05-16T18:03:21;2.63;;;0.50;;
20986;SDS011;10652;50.306;8.570;2023-05-16T18:07:24;2.15;;;0.65;;
20986;SDS011;10652;50.306;8.570;2023-05-16T18:11:27;3.40;;;0.63;;
20986;SDS011;10652;50.306;8.570;2023-05-16T18:15:29;84.97;;;34.03;;
20986;SDS011;10652;50.306;8.570;2023-05-16T18:19:31;3.72;;;1.73;;
20986;SDS011;10652;50.306;8.570;2023-05-16T18:23:33;2.38;;;0.82;;
20986;SDS011;10652;50.306;8.570;2023-05-16T18:27:36;2.25;;;0.50;;
20986;SDS011;10652;50.306;8.570;2023-05-16T18:31:38;3.90;;;0.60;;
20986;SDS011;10652;50.306;8.570;2023-05-16T18:35:43;3.22;;;0.80;;
20986;SDS011;10652;50.306;8.570;2023-05-16T18:39:45;2.25;;;0.70;;
20986;SDS011;10652;50.306;8.570;2023-05-16T18:43:49;3.45;;;0.90;;
20986;SDS011;10652;50.306;8.570;2023-05-16T18:47:51;0.88;;;0.50;;
20986;SDS011;10652;50.306;8.570;2023-05-16T18:51:54;2.90;;;0.60;;
20986;SDS011;10652;50.306;8.570;2023-05-16T18:55:56;3.80;;;0.73;;
20986;SDS011;10652;50.306;8.570;2023-05-16T18:59:59;2.63;;;0.60;;
20986;SDS011;10652;50.306;8.570;2023-05-16T19:04:02;1.63;;;0.60;;
20986;SDS011;10652;50.306;8.570;2023-05-16T19:08:04;3.03;;;0.50;;
20986;SDS011;10652;50.306;8.570;2023-05-16T19:12:07;3.85;;;0.60;;
20986;SDS011;10652;50.306;8.570;2023-05-16T19:16:09;2.75;;;0.60;;
20986;SDS011;10652;50.306;8.570;2023-05-16T19:20:12;3.80;;;0.65;;
20986;SDS011;10652;50.306;8.570;2023-05-16T19:24:14;1.45;;;0.55;;
20986;SDS011;10652;50.306;8.570;2023-05-16T19:28:16;5.13;;;0.75;;
20986;SDS011;10652;50.306;8.570;2023-05-16T19:32:18;3.60;;;0.73;;
20986;SDS011;10652;50.306;8.570;2023-05-16T19:36:21;2.85;;;0.68;;
20986;SDS011;10652;50.306;8.570;2023-05-16T19:40:23;5.47;;;0.80;;
20986;SDS011;10652;50.306;8.570;2023-05-16T19:44:25;2.33;;;0.73;;
20986;SDS011;10652;50.306;8.570;2023-05-16T19:48:27;2.72;;;0.80;;
20986;SDS011;10652;50.306;8.570;2023-05-16T19:52:30;3.33;;;0.68;;
20986;SDS011;10652;50.306;8.570;2023-05-16T19:56:32;3.05;;;0.80;;
20986;SDS011;10652;50.306;8.570;2023-05-16T20:00:34;3.60;;;1.00;;
20986;SDS011;10652;50.306;8.570;2023-05-16T20:04:36;3.55;;;0.70;;
20986;SDS011;10652;50.306;8.570;2023-05-16T20:08:38;4.13;;;1.00;;
20986;SDS011;10652;50.306;8.570;2023-05-16T20:12:40;2.35;;;0.60;;
20986;SDS011;10652;50.306;8.570;2023-05-16T20:16:43;3.17;;;0.80;;
20986;SDS011;10652;50.306;8.570;2023-05-16T20:20:45;2.20;;;0.65;;
20986;SDS011;10652;50.306;8.570;2023-05-16T20:24:47;4.07;;;0.90;;
20986;SDS011;10652;50.306;8.570;2023-05-16T20:28:49;1.83;;;0.63;;
20986;SDS011;10652;50.306;8.570;2023-05-16T20:32:51;3.13;;;0.70;;
20986;SDS011;10652;50.306;8.570;2023-05-16T20:36:53;3.78;;;0.90;;
20986;SDS011;10652;50.306;8.570;2023-05-16T20:40:55;3.65;;;0.90;;
20986;SDS011;10652;50.306;8.570;2023-05-16T20:44:58;4.72;;;1.00;;
20986;SDS011;10652;50.306;8.570;2023-05-16T20:49:00;6.03;;;1.00;;
20986;SDS011;10652;50.306;8.570;2023-05-16T20:53:02;1.83;;;0.75;;
20986;SDS011;10652;50.306;8.570;2023-05-16T20:57:04;5.55;;;0.90;;
20986;SDS011;10652;50.306;8.570;2023-05-16T21:01:07;3.85;;;1.00;;
20986;SDS011;10652;50.306;8.570;2023-05-16T21:05:09;2.85;;;0.80;;
20986;SDS011;10652;50.306;8.570;2023-05-16T21:09:31;2.92;;;0.77;;
20986;SDS011;10652;50.306;8.570;2023-05-16T21:13:34;2.80;;;0.93;;
20986;SDS011;10652;50.306;8.570;2023-05-16T21:17:36;3.45;;;1.00;;
20986;SDS011;10652;50.306;8.570;2023-05-16T21:21:40;4.93;;;0.90;;
20986;SDS011;10652;50.306;8.570;2023-05-16T21:25:42;4.05;;;0.70;;
20986;SDS011;10652;50.306;8.570;2023-05-16T21:29:44;4.53;;;0.90;;
20986;SDS011;10652;50.306;8.570;2023-05-16T21:33:46;2.97;;;0.90;;
20986;SDS011;10652;50.306;8.570;2023-05-16T21:37:48;3.38;;;1.13;;
20986;SDS011;10652;50.306;8.570;2023-05-16T21:41:50;2.40;;;0.80;;
20986;SDS011;10652;50.306;8.570;2023-05-16T21:45:52;2.47;;;0.77;;
20986;SDS011;10652;50.306;8.570;2023-05-16T21:49:55;3.70;;;1.02;;
20986;SDS011;10652;50.306;8.570;2023-05-16T21:53:57;4.03;;;1.10;;
20986;SDS011;10652;50.306;8.570;2023-05-16T21:57:59;4.30;;;0.90;;
20986;SDS011;10652;50.306;8.570;2023-05-16T22:02:02;2.22;;;1.10;;
20986;SDS011;10652;50.306;8.570;2023-05-16T22:06:04;4.32;;;0.93;;
20986;SDS011;10652;50.306;8.570;2023-05-16T22:10:07;2.58;;;1.02;;
20986;SDS011;10652;50.306;8.570;2023-05-16T22:14:11;3.63;;;0.90;;
20986;SDS011;10652;50.306;8.570;2023-05-16T22:18:13;3.30;;;1.02;;
20986;SDS011;10652;50.306;8.570;2023-05-16T22:22:15;4.15;;;1.35;;
20986;SDS011;10652;50.306;8.570;2023-05-16T22:26:17;3.83;;;1.20;;
20986;SDS011;10652;50.306;8.570;2023-05-16T22:30:19;5.32;;;1.40;;
20986;SDS011;10652;50.306;8.570;2023-05-16T22:34:22;4.82;;;1.23;;
20986;SDS011;10652;50.306;8.570;2023-05-16T22:38:24;3.22;;;1.50;;
20986;SDS011;10652;50.306;8.570;2023-05-16T22:42:27;4.30;;;1.30;;
20986;SDS011;10652;50.306;8.570;2023-05-16T22:46:29;4.45;;;1.48;;
20986;SDS011;10652;50.306;8.570;2023-05-16T22:50:31;4.90;;;1.30;;
20986;SDS011;10652;50.306;8.570;2023-05-16T22:54:33;4.72;;;1.40;;
20986;SDS011;10652;50.306;8.570;2023-05-16T22:58:35;3.83;;;1.35;;
20986;SDS011;10652;50.306;8.570;2023-05-16T23:02:37;3.95;;;1.45;;
20986;SDS011;10652;50.306;8.570;2023-05-16T23:06:40;5.72;;;1.40;;
20986;SDS011;10652;50.306;8.570;2023-05-16T23:10:42;4.93;;;1.25;;
20986;SDS011;10652;50.306;8.570;2023-05-16T23:14:44;4.32;;;1.20;;
20986;SDS011;10652;50.306;8.570;2023-05-16T23:18:46;4.00;;;1.20;;
20986;SDS011;10652;50.306;8.570;2023-05-16T23:22:48;6.05;;;1.95;;
20986;SDS011;10652;50.306;8.570;2023-05-16T23:26:50;3.88;;;1.40;;
20986;SDS011;10652;50.306;8.570;2023-05-16T23:30:52;5.13;;;1.70;;
20986;SDS011;10652;50.306;8.570;2023-05-16T23:34:54;4.25;;;1.80;;
20986;SDS011;10652;50.306;8.570;2023-05-16T23:38:57;4.47;;;1.50;;
20986;SDS011;10652;50.306;8.570;2023-05-16T23:42:59;6.22;;;1.60;;
20986;SDS011;10652;50.306;8.570;2023-05-16T23:47:01;5.88;;;1.80;;
20986;SDS011;10652;50.306;8.570;2023-05-16T23:51:03;3.78;;;1.70;;
20986;SDS011;10652;50.306;8.570;2023-05-16T23:55:08;3.38;;;1.45;;
20986;SDS011;10652;50.306;8.570;2023-05-16T23:59:10;6.28;;;1.52;;
